Waterloo, Pennsylvania
Current Conditions -  °F | °C
As of 9:53 PM on Saturday 25 Oct 2014 (Local Time) from KAOO Reporting Station
Few Clouds Few Clouds  
Wind Chill: 61°   Ceiling: Unl
Heat Index: 61°   Visibility: 10mi
Dew Point: 51°   Wind: 17mph
Humidity: 70%   Direction: 280°W
Pressure: 29.7"   Gusts: 29mph
Location:  40.3617°N, 77.6745°W
Report Text: KAOO 260153Z AUTO 28015G25KT 10SM FEW034 16/11 A2970 RMK AO2 SLP054 T01610106
Loading
Personal Weather Stations






























Interactive Weather Map
Tropical Storm Tracking
New forecast layout! Learn more

10-Day Weather Forecast

Advertisements
Track Severe Weather on mobile